Pagrindinis puslapis
METAR-TAF:

METAR-TAF

Oro uostai :

Bingöl, Turkija

platuma: 38-51-40N, ilguma: 40-35-33E, Aukštis: 1063 m

Dabartinis oras

Ataskaita buvo paskelbta 53 minutes, ne 05:50 UTC
Vėjas 2 kt nuo kintamojo kryptimis
Temperatūra 10°C
Drėgmė 66%
Slėgis 1009 hPa
Matomumas 10 km arba daugiau
Išsisklaidę debesys ne aukštis 3500 ft
Su prošvaistėmis ne aukštis 20000 ft

METAR: LTCU 100550Z VRB02KT 9999 SCT035 BKN200 10/04 Q1009

Laikas: 09:43 (06:43 UTC)

Prognozė

Ataskaita buvo paskelbta 2 valandos ir 3 minutes, ne 04:40 UTC
Prognozė galioja nuo 10 metu 06 UTC su 10 metu 15 UTC
Vėjas 2 kt nuo kintamojo kryptimis
Matomumas 10 km arba daugiau
Mažai debesys ne aukštis 3500 ft
Išsisklaidę debesys ne aukštis 10000 ft
Laikinai
nuo 10 metu 12 UTC su 10 metu 15 UTC
Vėjas 12 kt iš Pietvakarių
Mažai debesys ne aukštis 3000 ft, Liūtiniai kamuoliniai debesys.
Su prošvaistėmis ne aukštis 3300 ft
Su prošvaistėmis ne aukštis 9000 ft
perkūnija, lietus

TAF: LTCU 100440Z 1006/1015 VRB02KT 9999 FEW035 SCT100 TEMPO 1012/1015 22012KT -TSRA FEW030CB BKN033 BKN090

Orai ataskaitas ir orų prognozės (METAR, TAF).

turimą stotys yra geltonos ir raudonos taškus žemėlapyje.

Perkelti pele per norėdami pamatyti stoties vardą.

Tada spustelėkite, norėdami matyti oro stebėjimo ir prognozės.

Norėdami pakeisti žemėlapį: spustelėkite ant žalios mygtukų su juodo kryžiaus žemyn,; žalią mygtuką su brūkšneliu, jei norite nutolinti; arba žalių rodyklių gretimoms žemėlapius.


METAR-TAF: